sensor_id;sensor_type;location;lat;lon;timestamp;pressure;altitude;pressure_sealevel;temperature;humidity
22964;BME280;11648;49.306;6.934;2023-06-04T00:01:59;98469.13;;;20.40;35.61
22964;BME280;11648;49.306;6.934;2023-06-04T00:04:26;98464.59;;;20.41;35.47
22964;BME280;11648;49.306;6.934;2023-06-04T00:06:53;98462.59;;;20.27;35.19
22964;BME280;11648;49.306;6.934;2023-06-04T00:09:20;98458.09;;;20.29;35.40
22964;BME280;11648;49.306;6.934;2023-06-04T00:11:47;98468.03;;;20.26;35.87
22964;BME280;11648;49.306;6.934;2023-06-04T00:14:14;98461.47;;;20.14;36.31
22964;BME280;11648;49.306;6.934;2023-06-04T00:16:44;98462.16;;;20.00;36.92
22964;BME280;11648;49.306;6.934;2023-06-04T00:19:11;98458.41;;;20.04;37.03
22964;BME280;11648;49.306;6.934;2023-06-04T00:21:38;98460.72;;;19.93;37.37
22964;BME280;11648;49.306;6.934;2023-06-04T00:24:05;98459.72;;;19.96;37.27
22964;BME280;11648;49.306;6.934;2023-06-04T00:26:33;98469.91;;;19.88;37.58
22964;BME280;11648;49.306;6.934;2023-06-04T00:29:00;98467.31;;;19.86;37.70
22964;BME280;11648;49.306;6.934;2023-06-04T00:31:27;98468.09;;;19.88;37.69
22964;BME280;11648;49.306;6.934;2023-06-04T00:33:54;98468.25;;;19.85;37.35
22964;BME280;11648;49.306;6.934;2023-06-04T00:36:21;98470.81;;;19.87;37.69
22964;BME280;11648;49.306;6.934;2023-06-04T00:38:48;98458.06;;;19.75;37.74
22964;BME280;11648;49.306;6.934;2023-06-04T00:41:14;98463.84;;;19.65;36.95
22964;BME280;11648;49.306;6.934;2023-06-04T00:43:41;98469.03;;;19.68;37.01
22964;BME280;11648;49.306;6.934;2023-06-04T00:46:12;98464.78;;;19.64;37.34
22964;BME280;11648;49.306;6.934;2023-06-04T00:48:45;98457.28;;;19.54;36.73
22964;BME280;11648;49.306;6.934;2023-06-04T00:51:12;98458.06;;;19.56;37.58
22964;BME280;11648;49.306;6.934;2023-06-04T00:53:39;98461.03;;;19.50;37.86
22964;BME280;11648;49.306;6.934;2023-06-04T00:56:06;98463.00;;;19.46;37.97
22964;BME280;11648;49.306;6.934;2023-06-04T00:58:38;98465.81;;;19.43;37.86
22964;BME280;11648;49.306;6.934;2023-06-04T01:01:12;98467.91;;;19.35;37.70
22964;BME280;11648;49.306;6.934;2023-06-04T01:03:45;98471.19;;;19.42;38.07
22964;BME280;11648;49.306;6.934;2023-06-04T01:08:51;98469.72;;;19.35;37.99
22964;BME280;11648;49.306;6.934;2023-06-04T01:11:34;98458.38;;;19.30;38.20
22964;BME280;11648;49.306;6.934;2023-06-04T01:14:06;98461.03;;;19.30;38.11
22964;BME280;11648;49.306;6.934;2023-06-04T01:22:10;98461.00;;;19.31;37.74
22964;BME280;11648;49.306;6.934;2023-06-04T01:24:41;98463.31;;;19.39;37.92
22964;BME280;11648;49.306;6.934;2023-06-04T01:27:08;98467.09;;;19.33;38.02
22964;BME280;11648;49.306;6.934;2023-06-04T01:29:35;98470.00;;;19.29;37.90
22964;BME280;11648;49.306;6.934;2023-06-04T01:32:03;98464.19;;;19.19;37.95
22964;BME280;11648;49.306;6.934;2023-06-04T01:34:31;98457.06;;;19.19;38.07
22964;BME280;11648;49.306;6.934;2023-06-04T01:37:10;98457.88;;;19.21;37.73
22964;BME280;11648;49.306;6.934;2023-06-04T01:39:38;98459.75;;;19.19;38.24
22964;BME280;11648;49.306;6.934;2023-06-04T01:42:05;98467.31;;;19.10;38.24
22964;BME280;11648;49.306;6.934;2023-06-04T01:44:32;98459.78;;;18.99;38.14
22964;BME280;11648;49.306;6.934;2023-06-04T01:47:00;98460.16;;;18.90;38.16
22964;BME280;11648;49.306;6.934;2023-06-04T01:49:27;98461.72;;;18.96;38.06
22964;BME280;11648;49.306;6.934;2023-06-04T01:51:54;98456.25;;;18.99;38.18
22964;BME280;11648;49.306;6.934;2023-06-04T01:54:22;98461.50;;;19.00;38.05
22964;BME280;11648;49.306;6.934;2023-06-04T01:56:49;98452.13;;;18.92;38.08
22964;BME280;11648;49.306;6.934;2023-06-04T01:59:16;98454.94;;;18.89;38.69
22964;BME280;11648;49.306;6.934;2023-06-04T02:01:43;98452.59;;;18.81;38.34
22964;BME280;11648;49.306;6.934;2023-06-04T02:04:10;98453.31;;;18.85;38.59
22964;BME280;11648;49.306;6.934;2023-06-04T02:06:37;98457.00;;;18.82;38.77
22964;BME280;11648;49.306;6.934;2023-06-04T02:09:04;98451.03;;;18.75;38.47
22964;BME280;11648;49.306;6.934;2023-06-04T02:11:30;98467.91;;;18.76;38.43
22964;BME280;11648;49.306;6.934;2023-06-04T02:13:57;98462.25;;;18.84;38.30
22964;BME280;11648;49.306;6.934;2023-06-04T02:16:24;98463.59;;;18.73;38.63
22964;BME280;11648;49.306;6.934;2023-06-04T02:18:51;98464.28;;;18.79;38.27
22964;BME280;11648;49.306;6.934;2023-06-04T02:21:18;98468.25;;;18.68;38.18
22964;BME280;11648;49.306;6.934;2023-06-04T02:23:45;98469.13;;;18.69;38.55
22964;BME280;11648;49.306;6.934;2023-06-04T02:26:12;98473.16;;;18.57;38.65
22964;BME280;11648;49.306;6.934;2023-06-04T02:28:38;98473.41;;;18.53;38.86
22964;BME280;11648;49.306;6.934;2023-06-04T02:31:05;98475.53;;;18.43;38.61
22964;BME280;11648;49.306;6.934;2023-06-04T02:33:33;98474.91;;;18.58;38.92
22964;BME280;11648;49.306;6.934;2023-06-04T02:35:59;98474.03;;;18.58;38.64
22964;BME280;11648;49.306;6.934;2023-06-04T02:38:27;98469.53;;;18.60;38.71
22964;BME280;11648;49.306;6.934;2023-06-04T02:40:54;98474.31;;;18.52;38.33
22964;BME280;11648;49.306;6.934;2023-06-04T02:43:21;98478.00;;;18.48;39.25
22964;BME280;11648;49.306;6.934;2023-06-04T02:45:48;98473.81;;;18.42;38.70
22964;BME280;11648;49.306;6.934;2023-06-04T02:48:15;98474.41;;;18.49;38.66
22964;BME280;11648;49.306;6.934;2023-06-04T02:50:42;98480.75;;;18.46;38.53
22964;BME280;11648;49.306;6.934;2023-06-04T02:53:09;98481.50;;;18.50;38.86
22964;BME280;11648;49.306;6.934;2023-06-04T02:55:36;98480.00;;;18.43;38.78
22964;BME280;11648;49.306;6.934;2023-06-04T02:58:03;98473.69;;;18.45;38.65
22964;BME280;11648;49.306;6.934;2023-06-04T03:00:29;98478.13;;;18.45;38.63
22964;BME280;11648;49.306;6.934;2023-06-04T03:02:57;98474.06;;;18.36;38.81
22964;BME280;11648;49.306;6.934;2023-06-04T03:05:29;98477.38;;;18.21;39.12
22964;BME280;11648;49.306;6.934;2023-06-04T03:08:00;98477.72;;;18.12;39.39
22964;BME280;11648;49.306;6.934;2023-06-04T03:10:29;98476.13;;;18.08;39.48
22964;BME280;11648;49.306;6.934;2023-06-04T03:12:56;98481.59;;;18.05;39.49
22964;BME280;11648;49.306;6.934;2023-06-04T03:15:23;98479.03;;;18.02;39.39
22964;BME280;11648;49.306;6.934;2023-06-04T03:17:50;98485.84;;;18.09;39.50
22964;BME280;11648;49.306;6.934;2023-06-04T03:20:18;98482.44;;;18.05;39.64
22964;BME280;11648;49.306;6.934;2023-06-04T03:22:45;98485.56;;;17.95;39.94
22964;BME280;11648;49.306;6.934;2023-06-04T03:25:13;98478.19;;;18.01;39.57
22964;BME280;11648;49.306;6.934;2023-06-04T03:27:40;98479.34;;;17.94;39.28
22964;BME280;11648;49.306;6.934;2023-06-04T03:30:07;98479.34;;;17.94;39.36
22964;BME280;11648;49.306;6.934;2023-06-04T03:32:55;98478.34;;;17.97;39.48
22964;BME280;11648;49.306;6.934;2023-06-04T03:35:22;98478.72;;;17.88;39.65
22964;BME280;11648;49.306;6.934;2023-06-04T03:37:49;98477.72;;;17.90;39.46
22964;BME280;11648;49.306;6.934;2023-06-04T03:40:16;98474.63;;;17.79;39.33
22964;BME280;11648;49.306;6.934;2023-06-04T03:42:44;98477.16;;;17.82;39.63
22964;BME280;11648;49.306;6.934;2023-06-04T03:45:13;98481.66;;;17.82;39.97
22964;BME280;11648;49.306;6.934;2023-06-04T03:47:40;98481.41;;;17.88;39.46
22964;BME280;11648;49.306;6.934;2023-06-04T03:50:08;98485.06;;;17.85;39.82
22964;BME280;11648;49.306;6.934;2023-06-04T03:52:35;98481.41;;;17.88;39.67
22964;BME280;11648;49.306;6.934;2023-06-04T03:55:03;98487.38;;;17.93;39.51
22964;BME280;11648;49.306;6.934;2023-06-04T03:57:31;98489.38;;;17.88;39.54
22964;BME280;11648;49.306;6.934;2023-06-04T04:00:00;98487.72;;;17.85;39.54
22964;BME280;11648;49.306;6.934;2023-06-04T04:02:27;98485.06;;;17.85;39.71
22964;BME280;11648;49.306;6.934;2023-06-04T04:04:55;98489.50;;;17.85;39.91
22964;BME280;11648;49.306;6.934;2023-06-04T04:07:23;98487.91;;;18.02;39.57
22964;BME280;11648;49.306;6.934;2023-06-04T04:09:52;98492.09;;;18.08;39.81
22964;BME280;11648;49.306;6.934;2023-06-04T04:12:19;98484.25;;;18.05;39.63
22964;BME280;11648;49.306;6.934;2023-06-04T04:14:46;98487.34;;;17.94;39.76
22964;BME280;11648;49.306;6.934;2023-06-04T04:17:14;98490.50;;;18.04;39.74
22964;BME280;11648;49.306;6.934;2023-06-04T04:19:42;98491.97;;;18.11;39.58
22964;BME280;11648;49.306;6.934;2023-06-04T04:22:10;98492.53;;;18.19;39.48
22964;BME280;11648;49.306;6.934;2023-06-04T04:24:37;98494.94;;;18.25;39.46
22964;BME280;11648;49.306;6.934;2023-06-04T04:27:04;98493.28;;;18.22;39.59
22964;BME280;11648;49.306;6.934;2023-06-04T04:29:32;98491.34;;;18.26;39.43
22964;BME280;11648;49.306;6.934;2023-06-04T04:32:01;98502.19;;;18.21;39.81
22964;BME280;11648;49.306;6.934;2023-06-04T04:34:31;98500.34;;;18.23;39.43
22964;BME280;11648;49.306;6.934;2023-06-04T04:36:59;98501.09;;;18.27;39.26
22964;BME280;11648;49.306;6.934;2023-06-04T04:39:26;98498.69;;;18.43;38.58
22964;BME280;11648;49.306;6.934;2023-06-04T04:41:55;98499.22;;;18.51;38.48
22964;BME280;11648;49.306;6.934;2023-06-04T04:44:22;98500.97;;;18.52;38.46
22964;BME280;11648;49.306;6.934;2023-06-04T04:46:49;98493.53;;;18.60;38.31
22964;BME280;11648;49.306;6.934;2023-06-04T04:49:16;98497.72;;;18.65;38.08
22964;BME280;11648;49.306;6.934;2023-06-04T04:51:43;98495.47;;;18.56;37.54
22964;BME280;11648;49.306;6.934;2023-06-04T04:54:10;98501.56;;;18.58;37.36
22964;BME280;11648;49.306;6.934;2023-06-04T04:56:38;98498.31;;;18.72;38.14
22964;BME280;11648;49.306;6.934;2023-06-04T04:59:04;98504.66;;;18.69;37.71
22964;BME280;11648;49.306;6.934;2023-06-04T05:01:31;98501.63;;;18.79;37.71
22964;BME280;11648;49.306;6.934;2023-06-04T05:03:59;98500.06;;;18.93;37.45
22964;BME280;11648;49.306;6.934;2023-06-04T05:06:29;98495.72;;;19.11;37.62
22964;BME280;11648;49.306;6.934;2023-06-04T05:08:56;98496.22;;;19.19;37.77
22964;BME280;11648;49.306;6.934;2023-06-04T05:11:22;98492.59;;;19.40;37.40
22964;BME280;11648;49.306;6.934;2023-06-04T05:13:49;98496.47;;;19.53;37.09
22964;BME280;11648;49.306;6.934;2023-06-04T05:16:16;98498.78;;;19.61;36.59
22964;BME280;11648;49.306;6.934;2023-06-04T05:18:47;98498.13;;;19.75;36.49
22964;BME280;11648;49.306;6.934;2023-06-04T05:21:19;98495.84;;;19.86;36.43
22964;BME280;11648;49.306;6.934;2023-06-04T05:23:56;98499.13;;;20.09;36.03
22964;BME280;11648;49.306;6.934;2023-06-04T05:26:26;98504.03;;;20.18;35.89
22964;BME280;11648;49.306;6.934;2023-06-04T05:28:58;98499.75;;;20.33;35.58
22964;BME280;11648;49.306;6.934;2023-06-04T05:31:29;98501.38;;;20.54;34.94
22964;BME280;11648;49.306;6.934;2023-06-04T05:33:58;98500.97;;;20.62;35.55
22964;BME280;11648;49.306;6.934;2023-06-04T05:36:29;98510.81;;;20.79;34.98
22964;BME280;11648;49.306;6.934;2023-06-04T05:38:59;98501.19;;;21.09;34.58
22964;BME280;11648;49.306;6.934;2023-06-04T05:41:41;98509.56;;;21.20;35.15
22964;BME280;11648;49.306;6.934;2023-06-04T05:44:08;98499.94;;;21.33;34.30
22964;BME280;11648;49.306;6.934;2023-06-04T05:46:35;98506.66;;;21.57;34.09
22964;BME280;11648;49.306;6.934;2023-06-04T05:49:02;98499.13;;;21.64;34.17
22964;BME280;11648;49.306;6.934;2023-06-04T05:51:29;98510.38;;;21.71;33.71
22964;BME280;11648;49.306;6.934;2023-06-04T05:53:56;98507.22;;;21.80;33.95
22964;BME280;11648;49.306;6.934;2023-06-04T05:56:23;98515.75;;;21.86;33.82
22964;BME280;11648;49.306;6.934;2023-06-04T05:58:53;98511.66;;;21.96;33.95
22964;BME280;11648;49.306;6.934;2023-06-04T06:01:22;98513.03;;;22.19;32.46
22964;BME280;11648;49.306;6.934;2023-06-04T06:03:50;98507.50;;;22.38;32.37
22964;BME280;11648;49.306;6.934;2023-06-04T06:06:19;98511.00;;;22.54;32.14
22964;BME280;11648;49.306;6.934;2023-06-04T06:08:47;98512.31;;;22.92;32.04
22964;BME280;11648;49.306;6.934;2023-06-04T06:11:15;98510.94;;;23.29;31.58
22964;BME280;11648;49.306;6.934;2023-06-04T06:13:42;98507.91;;;23.49;31.63
22964;BME280;11648;49.306;6.934;2023-06-04T06:16:10;98513.22;;;23.65;31.19
22964;BME280;11648;49.306;6.934;2023-06-04T06:18:37;98509.09;;;23.74;31.19
22964;BME280;11648;49.306;6.934;2023-06-04T06:21:04;98511.09;;;23.70;30.62
22964;BME280;11648;49.306;6.934;2023-06-04T06:23:31;98520.78;;;23.58;31.26
22964;BME280;11648;49.306;6.934;2023-06-04T06:25:59;98514.47;;;23.59;30.31
22964;BME280;11648;49.306;6.934;2023-06-04T06:28:30;98509.94;;;23.46;30.01
22964;BME280;11648;49.306;6.934;2023-06-04T06:30:58;98518.50;;;23.52;30.24
22964;BME280;11648;49.306;6.934;2023-06-04T06:33:25;98525.97;;;23.61;30.18
22964;BME280;11648;49.306;6.934;2023-06-04T06:35:52;98524.91;;;23.64;31.02
22964;BME280;11648;49.306;6.934;2023-06-04T06:38:19;98525.38;;;23.99;30.81
22964;BME280;11648;49.306;6.934;2023-06-04T06:40:45;98536.72;;;23.90;30.07
22964;BME280;11648;49.306;6.934;2023-06-04T06:43:12;98524.53;;;23.98;30.04
22964;BME280;11648;49.306;6.934;2023-06-04T06:45:39;98532.13;;;23.92;30.21
22964;BME280;11648;49.306;6.934;2023-06-04T06:48:06;98532.31;;;24.03;30.58
22964;BME280;11648;49.306;6.934;2023-06-04T06:50:33;98529.94;;;24.11;29.59
22964;BME280;11648;49.306;6.934;2023-06-04T06:53:02;98532.81;;;24.36;29.26
22964;BME280;11648;49.306;6.934;2023-06-04T06:55:29;98536.66;;;24.32;29.67
22964;BME280;11648;49.306;6.934;2023-06-04T06:57:56;98535.66;;;24.47;30.23
22964;BME280;11648;49.306;6.934;2023-06-04T07:00:23;98531.44;;;24.43;29.06
22964;BME280;11648;49.306;6.934;2023-06-04T07:02:50;98531.81;;;24.78;29.72
22964;BME280;11648;49.306;6.934;2023-06-04T07:05:17;98536.28;;;24.92;29.26
22964;BME280;11648;49.306;6.934;2023-06-04T07:07:44;98527.19;;;25.20;28.79
22964;BME280;11648;49.306;6.934;2023-06-04T07:10:12;98530.88;;;25.31;28.71
22964;BME280;11648;49.306;6.934;2023-06-04T07:12:40;98524.94;;;25.39;28.83
22964;BME280;11648;49.306;6.934;2023-06-04T07:15:09;98530.56;;;25.36;28.82
22964;BME280;11648;49.306;6.934;2023-06-04T07:17:36;98534.69;;;25.54;28.47
22964;BME280;11648;49.306;6.934;2023-06-04T07:20:03;98534.09;;;25.36;28.21
22964;BME280;11648;49.306;6.934;2023-06-04T07:22:34;98536.53;;;25.53;28.82
22964;BME280;11648;49.306;6.934;2023-06-04T07:25:01;98534.13;;;25.74;29.22
22964;BME280;11648;49.306;6.934;2023-06-04T07:27:28;98540.03;;;25.79;27.53
22964;BME280;11648;49.306;6.934;2023-06-04T07:29:55;98535.53;;;25.92;27.52
22964;BME280;11648;49.306;6.934;2023-06-04T07:32:21;98539.81;;;25.95;27.49
22964;BME280;11648;49.306;6.934;2023-06-04T07:34:48;98539.75;;;25.71;27.64
22964;BME280;11648;49.306;6.934;2023-06-04T07:37:15;98541.44;;;25.97;28.28
22964;BME280;11648;49.306;6.934;2023-06-04T07:39:42;98538.84;;;26.21;28.50
22964;BME280;11648;49.306;6.934;2023-06-04T07:42:09;98539.00;;;26.43;28.04
22964;BME280;11648;49.306;6.934;2023-06-04T07:44:37;98537.03;;;26.45;27.72
22964;BME280;11648;49.306;6.934;2023-06-04T07:47:04;98534.41;;;26.44;27.10
22964;BME280;11648;49.306;6.934;2023-06-04T07:49:32;98532.22;;;26.13;27.25
22964;BME280;11648;49.306;6.934;2023-06-04T07:51:58;98531.72;;;25.95;27.85
22964;BME280;11648;49.306;6.934;2023-06-04T07:54:25;98529.25;;;25.92;27.81
22964;BME280;11648;49.306;6.934;2023-06-04T07:56:52;98531.13;;;26.15;28.16
22964;BME280;11648;49.306;6.934;2023-06-04T07:59:23;98528.53;;;26.26;27.24
22964;BME280;11648;49.306;6.934;2023-06-04T08:01:50;98531.44;;;26.36;27.38
22964;BME280;11648;49.306;6.934;2023-06-04T08:04:18;98527.13;;;26.81;26.58
22964;BME280;11648;49.306;6.934;2023-06-04T08:06:45;98532.19;;;27.09;27.13
22964;BME280;11648;49.306;6.934;2023-06-04T08:09:13;98524.91;;;27.44;26.15
22964;BME280;11648;49.306;6.934;2023-06-04T08:11:41;98520.28;;;28.02;25.45
22964;BME280;11648;49.306;6.934;2023-06-04T08:14:10;98517.00;;;28.10;25.12
22964;BME280;11648;49.306;6.934;2023-06-04T08:16:38;98524.66;;;28.16;25.60
22964;BME280;11648;49.306;6.934;2023-06-04T08:19:18;98517.22;;;28.29;25.51
22964;BME280;11648;49.306;6.934;2023-06-04T08:21:59;98517.38;;;27.94;26.50
22964;BME280;11648;49.306;6.934;2023-06-04T08:24:46;98523.25;;;27.88;26.44
22964;BME280;11648;49.306;6.934;2023-06-04T08:27:33;98527.44;;;28.36;25.33
22964;BME280;11648;49.306;6.934;2023-06-04T08:30:05;98527.78;;;29.18;25.30
22964;BME280;11648;49.306;6.934;2023-06-04T08:32:53;98522.09;;;29.83;23.56
22964;BME280;11648;49.306;6.934;2023-06-04T08:35:21;98523.44;;;29.68;24.30
22964;BME280;11648;49.306;6.934;2023-06-04T08:37:48;98523.22;;;30.11;24.14
22964;BME280;11648;49.306;6.934;2023-06-04T08:40:15;98525.28;;;29.67;24.64
22964;BME280;11648;49.306;6.934;2023-06-04T08:42:43;98528.34;;;29.53;24.58
22964;BME280;11648;49.306;6.934;2023-06-04T08:45:14;98518.78;;;29.17;24.68
22964;BME280;11648;49.306;6.934;2023-06-04T08:47:44;98517.47;;;29.74;24.21
22964;BME280;11648;49.306;6.934;2023-06-04T08:50:17;98511.34;;;30.02;24.80
22964;BME280;11648;49.306;6.934;2023-06-04T08:52:44;98514.72;;;29.85;24.12
22964;BME280;11648;49.306;6.934;2023-06-04T08:55:11;98517.69;;;30.12;23.88
22964;BME280;11648;49.306;6.934;2023-06-04T08:57:41;98521.47;;;30.40;23.98
22964;BME280;11648;49.306;6.934;2023-06-04T09:00:08;98528.84;;;30.68;23.32
22964;BME280;11648;49.306;6.934;2023-06-04T09:02:36;98529.34;;;31.02;23.02
22964;BME280;11648;49.306;6.934;2023-06-04T09:05:07;98529.25;;;30.45;24.13
22964;BME280;11648;49.306;6.934;2023-06-04T09:07:39;98533.75;;;29.95;25.35
22964;BME280;11648;49.306;6.934;2023-06-04T09:10:08;98535.75;;;29.72;24.60
22964;BME280;11648;49.306;6.934;2023-06-04T09:12:43;98539.84;;;29.87;24.59
22964;BME280;11648;49.306;6.934;2023-06-04T09:15:13;98534.97;;;30.51;24.29
22964;BME280;11648;49.306;6.934;2023-06-04T09:17:40;98535.75;;;31.30;23.51
22964;BME280;11648;49.306;6.934;2023-06-04T09:20:07;98535.84;;;31.76;22.83
22964;BME280;11648;49.306;6.934;2023-06-04T09:22:37;98531.00;;;32.17;22.26
22964;BME280;11648;49.306;6.934;2023-06-04T09:25:06;98529.06;;;32.64;22.25
22964;BME280;11648;49.306;6.934;2023-06-04T09:27:39;98530.84;;;32.91;21.94
22964;BME280;11648;49.306;6.934;2023-06-04T09:30:07;98527.00;;;33.11;20.69
22964;BME280;11648;49.306;6.934;2023-06-04T09:32:36;98531.00;;;33.42;20.53
22964;BME280;11648;49.306;6.934;2023-06-04T09:37:37;98525.56;;;33.42;20.65
22964;BME280;11648;49.306;6.934;2023-06-04T09:40:04;98514.56;;;33.34;20.43
22964;BME280;11648;49.306;6.934;2023-06-04T09:42:44;98522.97;;;33.84;19.82
22964;BME280;11648;49.306;6.934;2023-06-04T09:45:12;98511.38;;;33.39;20.48
22964;BME280;11648;49.306;6.934;2023-06-04T09:47:42;98506.59;;;33.84;20.85
22964;BME280;11648;49.306;6.934;2023-06-04T09:50:13;98528.56;;;33.74;20.22
22964;BME280;11648;49.306;6.934;2023-06-04T09:52:40;98519.59;;;33.21;20.75
22964;BME280;11648;49.306;6.934;2023-06-04T09:55:19;98503.75;;;33.24;20.41
22964;BME280;11648;49.306;6.934;2023-06-04T09:57:50;98507.25;;;33.78;20.66
22964;BME280;11648;49.306;6.934;2023-06-04T10:00:21;98510.44;;;34.75;19.26
22964;BME280;11648;49.306;6.934;2023-06-04T10:02:51;98499.34;;;35.82;18.60
22964;BME280;11648;49.306;6.934;2023-06-04T10:05:20;98505.88;;;35.73;17.95
22964;BME280;11648;49.306;6.934;2023-06-04T10:07:51;98499.91;;;35.37;18.46
22964;BME280;11648;49.306;6.934;2023-06-04T10:10:25;98507.06;;;35.05;17.75
22964;BME280;11648;49.306;6.934;2023-06-04T10:13:06;98510.88;;;35.12;17.81
22964;BME280;11648;49.306;6.934;2023-06-04T10:15:37;98509.97;;;33.78;18.30
22964;BME280;11648;49.306;6.934;2023-06-04T10:18:04;98520.56;;;34.49;18.91
22964;BME280;11648;49.306;6.934;2023-06-04T10:20:32;98502.59;;;34.88;18.27
22964;BME280;11648;49.306;6.934;2023-06-04T10:23:00;98516.97;;;34.98;18.50
22964;BME280;11648;49.306;6.934;2023-06-04T10:25:27;98505.72;;;35.58;17.71
22964;BME280;11648;49.306;6.934;2023-06-04T10:27:55;98498.19;;;35.60;17.85
22964;BME280;11648;49.306;6.934;2023-06-04T10:30:22;98484.00;;;35.32;17.11
22964;BME280;11648;49.306;6.934;2023-06-04T10:32:49;98503.00;;;35.34;17.52
22964;BME280;11648;49.306;6.934;2023-06-04T10:35:17;98504.78;;;35.98;17.16
22964;BME280;11648;49.306;6.934;2023-06-04T10:37:43;98487.38;;;36.99;17.41
22964;BME280;11648;49.306;6.934;2023-06-04T10:40:11;98499.72;;;37.03;16.62
22964;BME280;11648;49.306;6.934;2023-06-04T10:42:40;98474.59;;;37.29;16.76
22964;BME280;11648;49.306;6.934;2023-06-04T10:45:08;98485.44;;;37.68;15.84
22964;BME280;11648;49.306;6.934;2023-06-04T10:47:36;98483.22;;;37.49;16.36
22964;BME280;11648;49.306;6.934;2023-06-04T10:50:09;98494.97;;;36.67;16.71
22964;BME280;11648;49.306;6.934;2023-06-04T10:52:39;98498.41;;;37.59;16.96
22964;BME280;11648;49.306;6.934;2023-06-04T10:55:17;98488.59;;;37.94;15.87
22964;BME280;11648;49.306;6.934;2023-06-04T10:58:00;98509.97;;;37.32;16.89
22964;BME280;11648;49.306;6.934;2023-06-04T11:00:37;98491.53;;;37.93;16.43
22964;BME280;11648;49.306;6.934;2023-06-04T11:03:06;98500.75;;;38.00;16.09
22964;BME280;11648;49.306;6.934;2023-06-04T11:05:37;98500.97;;;36.93;16.40
22964;BME280;11648;49.306;6.934;2023-06-04T11:08:05;98490.22;;;38.03;16.49
22964;BME280;11648;49.306;6.934;2023-06-04T11:10:40;98487.56;;;38.25;16.12
22964;BME280;11648;49.306;6.934;2023-06-04T11:13:07;98491.25;;;38.02;16.47
22964;BME280;11648;49.306;6.934;2023-06-04T11:15:45;98491.91;;;38.34;16.38
22964;BME280;11648;49.306;6.934;2023-06-04T11:18:17;98492.50;;;39.37;15.27
22964;BME280;11648;49.306;6.934;2023-06-04T11:20:46;98486.81;;;39.24;15.41
22964;BME280;11648;49.306;6.934;2023-06-04T11:23:13;98494.53;;;38.71;15.42
22964;BME280;11648;49.306;6.934;2023-06-04T11:25:42;98484.63;;;38.77;15.43
22964;BME280;11648;49.306;6.934;2023-06-04T11:28:17;98481.09;;;38.97;15.24
22964;BME280;11648;49.306;6.934;2023-06-04T11:31:02;98486.91;;;37.93;16.10
22964;BME280;11648;49.306;6.934;2023-06-04T11:33:30;98477.53;;;38.82;15.67
22964;BME280;11648;49.306;6.934;2023-06-04T11:35:57;98481.22;;;39.32;15.56
22964;BME280;11648;49.306;6.934;2023-06-04T11:38:24;98478.00;;;40.12;15.04
22964;BME280;11648;49.306;6.934;2023-06-04T11:40:56;98481.59;;;39.08;15.09
22964;BME280;11648;49.306;6.934;2023-06-04T11:43:23;98474.34;;;39.49;15.09
22964;BME280;11648;49.306;6.934;2023-06-04T11:45:50;98472.09;;;39.59;15.27
22964;BME280;11648;49.306;6.934;2023-06-04T11:48:17;98468.56;;;40.27;14.34
22964;BME280;11648;49.306;6.934;2023-06-04T11:50:44;98470.72;;;40.32;14.72
22964;BME280;11648;49.306;6.934;2023-06-04T11:53:11;98459.03;;;40.77;14.35
22964;BME280;11648;49.306;6.934;2023-06-04T11:55:39;98464.91;;;41.48;13.83
22964;BME280;11648;49.306;6.934;2023-06-04T11:58:06;98472.41;;;40.80;14.28
22964;BME280;11648;49.306;6.934;2023-06-04T12:00:33;98465.25;;;39.48;15.10
22964;BME280;11648;49.306;6.934;2023-06-04T12:03:00;98473.72;;;38.33;15.39
22964;BME280;11648;49.306;6.934;2023-06-04T12:05:30;98468.38;;;37.73;16.60
22964;BME280;11648;49.306;6.934;2023-06-04T12:08:10;98476.34;;;38.12;16.08
22964;BME280;11648;49.306;6.934;2023-06-04T12:10:38;98476.25;;;38.20;16.22
22964;BME280;11648;49.306;6.934;2023-06-04T12:13:05;98473.97;;;37.42;16.54
22964;BME280;11648;49.306;6.934;2023-06-04T12:15:32;98473.56;;;36.85;17.33
22964;BME280;11648;49.306;6.934;2023-06-04T12:17:59;98458.69;;;36.48;17.30
22964;BME280;11648;49.306;6.934;2023-06-04T12:20:40;98471.06;;;35.97;17.94
22964;BME280;11648;49.306;6.934;2023-06-04T12:23:08;98475.97;;;35.14;18.50
22964;BME280;11648;49.306;6.934;2023-06-04T12:25:50;98477.09;;;34.21;19.23
22964;BME280;11648;49.306;6.934;2023-06-04T12:28:18;98479.25;;;33.84;20.24
22964;BME280;11648;49.306;6.934;2023-06-04T12:30:45;98476.63;;;33.49;20.57
22964;BME280;11648;49.306;6.934;2023-06-04T12:33:11;98483.09;;;33.04;19.97
22964;BME280;11648;49.306;6.934;2023-06-04T12:35:38;98477.56;;;32.78;20.11
22964;BME280;11648;49.306;6.934;2023-06-04T12:38:05;98482.47;;;32.75;20.98
22964;BME280;11648;49.306;6.934;2023-06-04T12:40:35;98481.34;;;32.50;20.78
22964;BME280;11648;49.306;6.934;2023-06-04T12:43:02;98487.31;;;32.36;21.19
22964;BME280;11648;49.306;6.934;2023-06-04T12:45:29;98483.25;;;31.86;21.54
22964;BME280;11648;49.306;6.934;2023-06-04T12:47:55;98499.75;;;31.74;21.94
22964;BME280;11648;49.306;6.934;2023-06-04T12:50:22;98486.91;;;31.57;22.22
22964;BME280;11648;49.306;6.934;2023-06-04T12:52:49;98492.19;;;31.59;21.73
22964;BME280;11648;49.306;6.934;2023-06-04T12:55:16;98479.75;;;31.56;21.88
22964;BME280;11648;49.306;6.934;2023-06-04T12:57:44;98485.72;;;31.69;22.46
22964;BME280;11648;49.306;6.934;2023-06-04T13:00:11;98483.91;;;31.41;21.89
22964;BME280;11648;49.306;6.934;2023-06-04T13:02:38;98482.00;;;31.70;22.80
22964;BME280;11648;49.306;6.934;2023-06-04T13:05:05;98486.91;;;31.57;22.70
22964;BME280;11648;49.306;6.934;2023-06-04T13:07:32;98480.19;;;31.52;21.57
22964;BME280;11648;49.306;6.934;2023-06-04T13:09:59;98479.75;;;31.47;22.64
22964;BME280;11648;49.306;6.934;2023-06-04T13:12:27;98474.31;;;31.56;22.35
22964;BME280;11648;49.306;6.934;2023-06-04T13:14:54;98478.75;;;31.38;22.93
22964;BME280;11648;49.306;6.934;2023-06-04T13:17:22;98487.22;;;31.25;22.65
22964;BME280;11648;49.306;6.934;2023-06-04T13:19:49;98482.22;;;31.11;21.83